Time;durP1;ratioP1;P1;durP2;ratioP2;P2;SDS_P1;SDS_P2;PMS_P1;PMS_P2;Temp;Humidity;BMP_temperature;BMP_pressure;BME280_temperature;BME280_humidity;BME280_pressure;Samples;Min_cycle;Max_cycle;Signal;HPM_P1;HPM_P2
2021/07/14 00:00:02;;;;;;;1.50;1.40;;;;;;;;;;4975494;28;20179;-88
2021/07/14 00:02:39;;;;;;;1.13;1.13;;;;;;;;;;4975220;28;20204;-87
2021/07/14 00:05:14;;;;;;;1.10;1.10;;;;;;;;;;4975707;28;20623;-86
2021/07/14 00:07:58;;;;;;;1.10;1.10;;;;;;;;;;4974720;28;20227;-89
2021/07/14 00:10:36;;;;;;;0.90;0.90;;;;;;;;;;4974662;28;20215;-86
2021/07/14 00:13:24;;;;;;;1.52;1.42;;;;;;;;;;4974231;28;20208;-88
2021/07/14 00:24:44;;;;;;;1.70;1.60;;;;;;;;;;4974782;28;20593;-86
2021/07/14 00:27:39;;;;;;;1.70;1.60;;;;;;;;;;4974593;28;20598;-90
2021/07/14 00:30:37;;;;;;;2.92;1.38;;;;;;;;;;4974344;28;20189;-87
2021/07/14 00:33:09;;;;;;;1.17;1.17;;;;;;;;;;4973803;28;20259;-87
2021/07/14 00:35:52;;;;;;;1.67;1.58;;;;;;;;;;4973839;28;20200;-86
2021/07/14 00:38:22;;;;;;;1.40;1.30;;;;;;;;;;4973527;28;20228;-86
2021/07/14 00:41:07;;;;;;;1.67;1.58;;;;;;;;;;4973619;28;20192;-86
2021/07/14 00:43:46;;;;;;;1.70;1.60;;;;;;;;;;4973538;28;20563;-86
2021/07/14 00:46:28;;;;;;;1.55;1.45;;;;;;;;;;4972898;28;20197;-86
2021/07/14 00:49:16;;;;;;;1.33;1.33;;;;;;;;;;4973588;28;20200;-86
2021/07/14 00:52:01;;;;;;;1.80;1.70;;;;;;;;;;4973801;28;20196;-86
2021/07/14 00:54:36;;;;;;;1.77;1.33;;;;;;;;;;4973519;28;20215;-86
2021/07/14 00:57:10;;;;;;;1.13;1.10;;;;;;;;;;4974580;28;20211;-86
2021/07/14 00:59:39;;;;;;;1.33;1.30;;;;;;;;;;4975345;28;20227;-86
2021/07/14 01:02:15;;;;;;;2.55;1.30;;;;;;;;;;4975314;28;20202;-86
2021/07/14 01:05:03;;;;;;;1.55;1.45;;;;;;;;;;4975503;28;20199;-86
2021/07/14 01:07:42;;;;;;;1.42;1.27;;;;;;;;;;4975527;28;20216;-86
2021/07/14 01:10:17;;;;;;;1.30;1.10;;;;;;;;;;4975502;28;20185;-85
2021/07/14 01:12:56;;;;;;;0.90;0.90;;;;;;;;;;4975312;28;20211;-86
2021/07/14 01:15:44;;;;;;;1.73;0.98;;;;;;;;;;4975315;28;20194;-86
2021/07/14 01:18:33;;;;;;;1.08;1.08;;;;;;;;;;4974585;28;20282;-86
2021/07/14 01:21:39;;;;;;;1.05;1.05;;;;;;;;;;4974973;28;20197;-85
2021/07/14 01:24:28;;;;;;;1.10;1.10;;;;;;;;;;4973861;28;20195;-87
2021/07/14 01:27:17;;;;;;;0.93;0.93;;;;;;;;;;4975363;28;20224;-86
2021/07/14 01:29:51;;;;;;;1.10;1.10;;;;;;;;;;4975451;28;20554;-86
2021/07/14 01:32:30;;;;;;;1.10;1.10;;;;;;;;;;4974505;28;20180;-86
2021/07/14 01:35:34;;;;;;;1.90;1.80;;;;;;;;;;4974701;28;20558;-85
2021/07/14 01:38:27;;;;;;;1.33;1.30;;;;;;;;;;4973954;28;20224;-86
2021/07/14 01:40:57;;;;;;;1.52;1.30;;;;;;;;;;4974237;28;20195;-86
2021/07/14 01:43:39;;;;;;;1.58;1.48;;;;;;;;;;4974185;28;20210;-86
2021/07/14 01:46:11;;;;;;;2.38;1.60;;;;;;;;;;4974208;28;20192;-86
2021/07/14 01:48:51;;;;;;;2.38;1.60;;;;;;;;;;4974311;28;20185;-86
2021/07/14 01:51:51;;;;;;;1.30;1.30;;;;;;;;;;4973716;28;20191;-86
2021/07/14 01:55:04;;;;;;;2.47;2.10;;;;;;;;;;4973967;28;20212;-86
2021/07/14 01:57:48;;;;;;;2.70;2.50;;;;;;;;;;4974119;28;20601;-86
2021/07/14 02:00:41;;;;;;;2.38;2.20;;;;;;;;;;4973597;28;20659;-86
2021/07/14 02:03:40;;;;;;;1.40;1.40;;;;;;;;;;4973957;28;20207;-85
2021/07/14 02:06:30;;;;;;;1.50;1.40;;;;;;;;;;4973876;28;20220;-85
2021/07/14 02:09:00;;;;;;;1.60;1.50;;;;;;;;;;4973770;28;20204;-88
2021/07/14 02:11:52;;;;;;;2.65;1.60;;;;;;;;;;4973768;28;20207;-86
2021/07/14 02:14:58;;;;;;;2.22;1.45;;;;;;;;;;4973581;28;20698;-85
2021/07/14 02:17:30;;;;;;;1.30;1.30;;;;;;;;;;4971800;28;20246;-85
2021/07/14 02:20:55;;;;;;;1.85;1.75;;;;;;;;;;4973532;28;20199;-86
2021/07/14 02:23:54;;;;;;;1.90;1.80;;;;;;;;;;4973817;28;20201;-87
2021/07/14 02:26:23;;;;;;;1.80;1.70;;;;;;;;;;4973465;28;20315;-86
2021/07/14 02:29:17;;;;;;;2.10;1.90;;;;;;;;;;4974085;28;20184;-87
2021/07/14 02:32:02;;;;;;;3.05;2.65;;;;;;;;;;4973629;28;20535;-86
2021/07/14 02:34:38;;;;;;;1.80;1.70;;;;;;;;;;4973972;28;20228;-86
2021/07/14 02:37:30;;;;;;;2.33;1.40;;;;;;;;;;4977475;28;20227;-86
2021/07/14 02:40:14;;;;;;;1.77;1.67;;;;;;;;;;4976671;28;20271;-86
2021/07/14 02:43:06;;;;;;;6.18;1.52;;;;;;;;;;4976511;28;20189;-85
2021/07/14 02:45:42;;;;;;;1.58;1.48;;;;;;;;;;4977317;28;20188;-85
2021/07/14 02:48:21;;;;;;;2.22;2.03;;;;;;;;;;4978692;28;20224;-85
2021/07/14 02:50:55;;;;;;;2.17;2.08;;;;;;;;;;4978622;28;20210;-86
2021/07/14 02:53:28;;;;;;;2.10;1.38;;;;;;;;;;4978324;28;20604;-85
2021/07/14 02:56:03;;;;;;;1.50;1.40;;;;;;;;;;4978221;28;20237;-85
2021/07/14 02:58:53;;;;;;;1.45;1.35;;;;;;;;;;4978070;28;20630;-85
2021/07/14 03:01:23;;;;;;;1.30;1.20;;;;;;;;;;4977999;28;20220;-86
2021/07/14 03:03:59;;;;;;;1.40;1.30;;;;;;;;;;4978342;28;20662;-86
2021/07/14 03:06:40;;;;;;;1.95;1.55;;;;;;;;;;4977701;28;20224;-86
2021/07/14 03:09:36;;;;;;;5.00;1.50;;;;;;;;;;4977378;28;20236;-87
2021/07/14 03:12:09;;;;;;;1.52;1.42;;;;;;;;;;4977869;28;20623;-86
2021/07/14 03:15:36;;;;;;;2.03;1.25;;;;;;;;;;4977461;28;20235;-86
2021/07/14 03:18:04;;;;;;;1.88;1.48;;;;;;;;;;4978722;28;20244;-85
2021/07/14 03:20:44;;;;;;;1.30;1.30;;;;;;;;;;4978922;28;20204;-85
2021/07/14 03:23:16;;;;;;;1.48;1.38;;;;;;;;;;4978444;28;20216;-87
2021/07/14 03:25:52;;;;;;;2.10;1.63;;;;;;;;;;4978056;28;20291;-86
2021/07/14 03:28:25;;;;;;;1.40;1.40;;;;;;;;;;4978212;28;20749;-86
2021/07/14 03:31:16;;;;;;;1.75;1.38;;;;;;;;;;4978869;28;20207;-86
2021/07/14 03:33:45;;;;;;;1.70;1.58;;;;;;;;;;4977925;28;20565;-85
2021/07/14 03:36:13;;;;;;;1.58;1.45;;;;;;;;;;4978109;28;20216;-87
2021/07/14 03:38:53;;;;;;;2.17;1.50;;;;;;;;;;4977112;28;20204;-86
2021/07/14 03:41:35;;;;;;;1.80;1.70;;;;;;;;;;4976616;28;20193;-87
2021/07/14 03:44:34;;;;;;;2.92;2.05;;;;;;;;;;4976688;28;20629;-87
2021/07/14 03:47:15;;;;;;;1.73;1.63;;;;;;;;;;4975741;28;20224;-86
2021/07/14 03:49:48;;;;;;;1.70;1.60;;;;;;;;;;4976889;28;20726;-86
2021/07/14 03:52:16;;;;;;;1.42;1.27;;;;;;;;;;4976704;28;20208;-86
2021/07/14 03:54:50;;;;;;;1.60;1.50;;;;;;;;;;4976459;28;20230;-86
2021/07/14 03:57:21;;;;;;;1.40;1.30;;;;;;;;;;4977434;28;20232;-86
2021/07/14 03:59:50;;;;;;;2.20;2.10;;;;;;;;;;4977136;28;20559;-86
2021/07/14 04:02:36;;;;;;;1.85;1.60;;;;;;;;;;4976451;28;20207;-87
2021/07/14 04:05:04;;;;;;;2.25;2.15;;;;;;;;;;4976237;28;20195;-86
2021/07/14 04:07:44;;;;;;;2.22;2.13;;;;;;;;;;4975723;28;20587;-86
2021/07/14 04:10:16;;;;;;;3.53;2.97;;;;;;;;;;4975726;28;20215;-86
2021/07/14 04:13:18;;;;;;;3.08;2.88;;;;;;;;;;4975761;28;20176;-86
2021/07/14 04:16:02;;;;;;;5.38;2.72;;;;;;;;;;4975962;28;20244;-86
2021/07/14 04:18:29;;;;;;;2.40;2.20;;;;;;;;;;4974142;28;20315;-88
2021/07/14 04:21:09;;;;;;;2.90;2.70;;;;;;;;;;4975613;28;20663;-87
2021/07/14 04:23:36;;;;;;;4.88;2.90;;;;;;;;;;4975711;28;20208;-87
2021/07/14 04:26:06;;;;;;;3.75;3.38;;;;;;;;;;4975333;28;20187;-87
2021/07/14 04:28:46;;;;;;;2.97;2.78;;;;;;;;;;4975491;28;20189;-87
2021/07/14 04:31:14;;;;;;;2.50;2.30;;;;;;;;;;4975115;28;20207;-86
2021/07/14 04:33:42;;;;;;;3.70;2.60;;;;;;;;;;4974961;28;20644;-86
2021/07/14 04:36:10;;;;;;;3.95;2.40;;;;;;;;;;4975314;28;20220;-85
2021/07/14 04:38:39;;;;;;;2.97;2.67;;;;;;;;;;4975429;28;20211;-86
2021/07/14 04:41:19;;;;;;;3.17;2.88;;;;;;;;;;4975768;28;20710;-85
2021/07/14 04:43:56;;;;;;;4.00;2.95;;;;;;;;;;4975549;28;20200;-86
2021/07/14 04:46:29;;;;;;;3.92;2.97;;;;;;;;;;4975799;28;20294;-85
2021/07/14 04:48:59;;;;;;;3.03;2.40;;;;;;;;;;4975749;28;20191;-86
2021/07/14 04:51:26;;;;;;;3.40;3.10;;;;;;;;;;4975429;28;20196;-86
2021/07/14 04:53:56;;;;;;;4.00;2.83;;;;;;;;;;4978590;28;20674;-85
2021/07/14 04:56:26;;;;;;;4.40;2.80;;;;;;;;;;4976948;28;20224;-86
2021/07/14 04:58:54;;;;;;;2.55;2.35;;;;;;;;;;4975564;28;20207;-85
2021/07/14 05:01:23;;;;;;;2.72;2.53;;;;;;;;;;4975172;28;20219;-86
2021/07/14 05:03:51;;;;;;;3.17;2.88;;;;;;;;;;4975987;28;20191;-86
2021/07/14 05:06:19;;;;;;;3.28;3.05;;;;;;;;;;4975358;28;20203;-87
2021/07/14 05:08:49;;;;;;;2.20;2.00;;;;;;;;;;4976329;28;20665;-86
2021/07/14 05:11:18;;;;;;;2.47;2.28;;;;;;;;;;4974994;28;20200;-86
2021/07/14 05:13:47;;;;;;;2.00;1.90;;;;;;;;;;4975151;28;20197;-87
2021/07/14 05:16:14;;;;;;;2.10;2.00;;;;;;;;;;4974866;28;20388;-86
2021/07/14 05:18:45;;;;;;;2.50;2.30;;;;;;;;;;4975380;28;20227;-86
2021/07/14 05:21:13;;;;;;;2.65;2.30;;;;;;;;;;4988082;28;20223;-88
2021/07/14 05:23:40;;;;;;;2.90;2.58;;;;;;;;;;4991003;28;20681;-86
2021/07/14 05:26:08;;;;;;;2.10;1.83;;;;;;;;;;4991645;28;20188;-88
2021/07/14 05:28:35;;;;;;;2.03;1.92;;;;;;;;;;4990942;28;20559;-88
2021/07/14 05:31:05;;;;;;;4.00;3.08;;;;;;;;;;4991467;28;20227;-86
2021/07/14 05:33:33;;;;;;;2.20;2.10;;;;;;;;;;4991235;28;20243;-89
2021/07/14 05:36:00;;;;;;;1.50;1.40;;;;;;;;;;4990831;28;20222;-89
2021/07/14 05:38:28;;;;;;;2.25;2.10;;;;;;;;;;4991194;28;20195;-88
2021/07/14 05:40:56;;;;;;;3.60;1.98;;;;;;;;;;4990996;28;20254;-88
2021/07/14 05:43:23;;;;;;;1.48;1.38;;;;;;;;;;4990569;28;20279;-87
2021/07/14 05:45:51;;;;;;;1.75;1.63;;;;;;;;;;4991146;28;20227;-89
2021/07/14 05:48:20;;;;;;;1.60;1.50;;;;;;;;;;4991435;28;20242;-88
2021/07/14 05:50:47;;;;;;;3.08;1.80;;;;;;;;;;4991168;28;20219;-88
2021/07/14 05:53:15;;;;;;;1.80;1.70;;;;;;;;;;4991370;28;20203;-87
2021/07/14 05:55:42;;;;;;;2.03;1.85;;;;;;;;;;4990948;28;20677;-89
2021/07/14 05:58:11;;;;;;;2.25;2.05;;;;;;;;;;4991843;28;20198;-88
2021/07/14 06:00:39;;;;;;;2.08;1.98;;;;;;;;;;4992983;28;20332;-90
2021/07/14 06:03:07;;;;;;;2.00;1.80;;;;;;;;;;4998125;28;20270;-91
2021/07/14 06:05:37;;;;;;;2.38;1.67;;;;;;;;;;5007365;28;20283;-92
2021/07/14 06:08:06;;;;;;;2.45;2.25;;;;;;;;;;4996066;28;20185;-88
2021/07/14 06:10:33;;;;;;;3.35;1.88;;;;;;;;;;4997157;28;20216;-89
2021/07/14 06:13:01;;;;;;;2.88;1.50;;;;;;;;;;5001280;28;20210;-91
2021/07/14 06:15:29;;;;;;;2.00;1.50;;;;;;;;;;5000620;28;20235;-87
2021/07/14 06:17:57;;;;;;;1.92;1.67;;;;;;;;;;5002498;28;20574;-89
2021/07/14 06:20:25;;;;;;;1.35;1.25;;;;;;;;;;5000553;28;20254;-90
2021/07/14 06:22:54;;;;;;;1.40;1.20;;;;;;;;;;4996633;28;20207;-89
2021/07/14 06:25:22;;;;;;;1.30;1.20;;;;;;;;;;4979852;28;20203;-90
2021/07/14 06:27:49;;;;;;;2.60;1.40;;;;;;;;;;4976568;28;20200;-89
2021/07/14 06:30:20;;;;;;;1.48;1.08;;;;;;;;;;4977183;28;20220;-88
2021/07/14 06:32:51;;;;;;;0.90;0.90;;;;;;;;;;4976603;28;20192;-89
2021/07/14 06:35:19;;;;;;;0.90;0.90;;;;;;;;;;4976310;28;20200;-88
2021/07/14 06:37:47;;;;;;;0.70;0.70;;;;;;;;;;4976228;28;20850;-88
2021/07/14 06:40:17;;;;;;;0.77;0.77;;;;;;;;;;4976237;28;20241;-88
2021/07/14 06:42:45;;;;;;;0.77;0.77;;;;;;;;;;4976277;28;20544;-90
2021/07/14 06:45:14;;;;;;;0.75;0.75;;;;;;;;;;4977381;28;20208;-90
2021/07/14 06:47:41;;;;;;;1.10;1.00;;;;;;;;;;4990897;28;20262;-89
2021/07/14 06:50:11;;;;;;;1.10;1.10;;;;;;;;;;4996785;28;20223;-89
2021/07/14 06:52:39;;;;;;;0.95;0.95;;;;;;;;;;4996569;28;20219;-91
2021/07/14 06:55:09;;;;;;;0.77;0.75;;;;;;;;;;4996288;28;20609;-88
2021/07/14 06:57:38;;;;;;;0.95;0.95;;;;;;;;;;4995583;28;20250;-91
2021/07/14 07:00:08;;;;;;;1.30;1.20;;;;;;;;;;4995588;28;20702;-90
2021/07/14 07:02:35;;;;;;;0.80;0.80;;;;;;;;;;4995284;28;20654;-90
2021/07/14 07:05:04;;;;;;;0.70;0.70;;;;;;;;;;4981252;28;20210;-91
2021/07/14 07:07:31;;;;;;;0.90;0.90;;;;;;;;;;4976103;28;20204;-90
2021/07/14 07:09:59;;;;;;;1.25;1.15;;;;;;;;;;4975572;28;20224;-90
2021/07/14 07:12:27;;;;;;;0.80;0.80;;;;;;;;;;4975809;28;20177;-90
2021/07/14 07:14:57;;;;;;;1.20;1.05;;;;;;;;;;4998711;28;20222;-91
2021/07/14 07:17:26;;;;;;;0.68;0.68;;;;;;;;;;5014349;28;20294;-89
2021/07/14 07:19:54;;;;;;;0.60;0.60;;;;;;;;;;5013837;28;20241;-89
2021/07/14 07:22:23;;;;;;;0.57;0.57;;;;;;;;;;5013922;28;20612;-90
2021/07/14 07:24:50;;;;;;;0.80;0.80;;;;;;;;;;5001575;28;20290;-89
2021/07/14 07:27:32;;;;;;;0.50;0.50;;;;;;;;;;4995063;28;20937;-91
2021/07/14 07:30:02;;;;;;;0.80;0.80;;;;;;;;;;4994145;28;20235;-88
2021/07/14 07:32:31;;;;;;;0.60;0.60;;;;;;;;;;4994911;28;20225;-90
2021/07/14 07:34:58;;;;;;;0.50;0.50;;;;;;;;;;4981347;28;20197;-90
2021/07/14 07:37:26;;;;;;;0.40;0.40;;;;;;;;;;4975197;28;20212;-90
2021/07/14 07:39:53;;;;;;;0.55;0.55;;;;;;;;;;4974754;28;20312;-91
2021/07/14 07:42:21;;;;;;;0.50;0.50;;;;;;;;;;4973494;28;20639;-89
2021/07/14 07:44:48;;;;;;;0.60;0.60;;;;;;;;;;4973437;28;20530;-88
2021/07/14 07:47:17;;;;;;;0.60;0.60;;;;;;;;;;4973082;28;20200;-89
2021/07/14 07:49:46;;;;;;;0.82;0.65;;;;;;;;;;4972921;28;20613;-89
2021/07/14 07:52:14;;;;;;;0.60;0.60;;;;;;;;;;4972965;28;20574;-89
2021/07/14 07:54:41;;;;;;;0.57;0.57;;;;;;;;;;4991893;28;20191;-89
2021/07/14 07:57:23;;;;;;;1.10;0.73;;;;;;;;;;5011435;28;20222;-92
2021/07/14 07:59:52;;;;;;;0.88;0.88;;;;;;;;;;5011870;28;20309;-90
2021/07/14 08:02:21;;;;;;;0.80;0.80;;;;;;;;;;5011952;28;20203;-91
2021/07/14 08:04:48;;;;;;;0.80;0.80;;;;;;;;;;4989839;28;20223;-91
2021/07/14 08:07:16;;;;;;;0.93;0.93;;;;;;;;;;4974687;28;20188;-90
2021/07/14 08:09:44;;;;;;;0.90;0.90;;;;;;;;;;4974636;28;20224;-90
2021/07/14 08:12:12;;;;;;;0.80;0.80;;;;;;;;;;4974919;28;20181;-90
2021/07/14 08:14:39;;;;;;;0.80;0.80;;;;;;;;;;4985276;28;20188;-91
2021/07/14 08:17:07;;;;;;;0.80;0.80;;;;;;;;;;4994276;28;20443;-90
2021/07/14 08:19:36;;;;;;;0.70;0.70;;;;;;;;;;4994011;28;20245;-92
2021/07/14 08:22:04;;;;;;;0.80;0.80;;;;;;;;;;4994468;28;20212;-91
2021/07/14 08:24:31;;;;;;;0.90;0.90;;;;;;;;;;5002270;28;20197;-90
2021/07/14 08:26:59;;;;;;;0.80;0.80;;;;;;;;;;4980478;28;20211;-91
2021/07/14 08:55:49;;;;;;;0.55;0.55;;;;;;;;;;4821219;29;20213;-88
2021/07/14 09:06:23;;;;;;;1.20;0.90;;;;;;;;;;4966818;28;20229;-87
2021/07/14 09:09:04;;;;;;;0.70;0.70;;;;;;;;;;4974137;28;20272;-88
2021/07/14 09:11:51;;;;;;;0.68;0.68;;;;;;;;;;4974527;28;20210;-87
2021/07/14 09:14:41;;;;;;;1.02;0.70;;;;;;;;;;4962325;28;20200;-88
2021/07/14 09:17:27;;;;;;;0.60;0.60;;;;;;;;;;4974248;28;20230;-89
2021/07/14 09:20:04;;;;;;;1.00;1.00;;;;;;;;;;4973061;28;20235;-89
2021/07/14 09:22:44;;;;;;;0.90;0.90;;;;;;;;;;4969905;28;20185;-89
2021/07/14 09:25:19;;;;;;;0.90;0.90;;;;;;;;;;4975465;28;20208;-90
2021/07/14 09:28:09;;;;;;;0.70;0.70;;;;;;;;;;4974928;28;20259;-88
2021/07/14 09:38:24;;;;;;;1.00;1.00;;;;;;;;;;4973990;28;20207;-90
2021/07/14 09:45:37;;;;;;;1.00;1.00;;;;;;;;;;4793800;29;20211;-89
2021/07/14 09:52:39;;;;;;;1.30;1.20;;;;;;;;;;4891764;29;20210;-87
2021/07/14 09:55:47;;;;;;;1.38;1.10;;;;;;;;;;4898864;29;20205;-87
2021/07/14 09:58:19;;;;;;;0.90;0.90;;;;;;;;;;4917660;28;20240;-87
2021/07/14 10:01:08;;;;;;;1.00;1.00;;;;;;;;;;4976989;28;20686;-89
2021/07/14 10:03:38;;;;;;;0.95;0.95;;;;;;;;;;4959247;28;20288;-87
2021/07/14 10:06:11;;;;;;;1.08;1.08;;;;;;;;;;4973250;28;20363;-88
2021/07/14 10:08:50;;;;;;;1.05;1.05;;;;;;;;;;4977212;28;20199;-87
2021/07/14 10:11:21;;;;;;;1.05;1.05;;;;;;;;;;4976952;28;20279;-87
2021/07/14 10:13:59;;;;;;;0.95;0.90;;;;;;;;;;4975788;28;20208;-86
2021/07/14 10:16:30;;;;;;;1.38;0.85;;;;;;;;;;4976474;28;20269;-86
2021/07/14 10:19:01;;;;;;;0.90;0.90;;;;;;;;;;4976383;28;20271;-86
2021/07/14 10:21:31;;;;;;;0.75;0.75;;;;;;;;;;4975237;28;20192;-87
2021/07/14 10:24:00;;;;;;;0.98;0.98;;;;;;;;;;4976459;28;20268;-86
2021/07/14 10:26:28;;;;;;;0.70;0.70;;;;;;;;;;4976332;28;20204;-87
2021/07/14 10:28:57;;;;;;;1.45;0.80;;;;;;;;;;4975871;28;20197;-86
2021/07/14 10:31:26;;;;;;;0.90;0.90;;;;;;;;;;4975869;28;20189;-86
2021/07/14 10:33:56;;;;;;;0.93;0.93;;;;;;;;;;4976697;28;20195;-89
2021/07/14 10:36:28;;;;;;;0.90;0.90;;;;;;;;;;4974354;28;20292;-86
2021/07/14 10:39:02;;;;;;;0.80;0.80;;;;;;;;;;4975203;28;20216;-89
2021/07/14 10:41:32;;;;;;;1.00;1.00;;;;;;;;;;4975595;28;20196;-86
2021/07/14 10:44:01;;;;;;;1.02;0.80;;;;;;;;;;4975516;28;20275;-86
2021/07/14 10:46:36;;;;;;;0.90;0.90;;;;;;;;;;4955603;28;20204;-88
2021/07/14 10:49:07;;;;;;;0.85;0.85;;;;;;;;;;4975756;28;20192;-86
2021/07/14 10:51:36;;;;;;;1.23;1.23;;;;;;;;;;4976022;28;20239;-87
2021/07/14 10:54:07;;;;;;;0.90;0.90;;;;;;;;;;4975302;28;20353;-87
2021/07/14 10:56:38;;;;;;;0.80;0.80;;;;;;;;;;4975803;28;20189;-86
2021/07/14 10:59:06;;;;;;;0.90;0.90;;;;;;;;;;4975403;28;20283;-85
2021/07/14 11:01:43;;;;;;;1.38;1.23;;;;;;;;;;4975531;28;20189;-87
2021/07/14 11:04:42;;;;;;;1.55;1.45;;;;;;;;;;4971641;28;20206;-87
2021/07/14 11:07:10;;;;;;;2.00;1.85;;;;;;;;;;4975149;28;20207;-86
2021/07/14 11:09:39;;;;;;;1.90;1.80;;;;;;;;;;4967429;28;20227;-85
2021/07/14 11:12:09;;;;;;;2.15;2.05;;;;;;;;;;4975508;28;20276;-87
2021/07/14 11:14:39;;;;;;;2.10;2.00;;;;;;;;;;4972406;28;20563;-87
2021/07/14 11:17:10;;;;;;;2.80;2.60;;;;;;;;;;4967319;28;20646;-86
2021/07/14 11:19:48;;;;;;;1.75;1.65;;;;;;;;;;4975517;28;20661;-87
2021/07/14 11:22:16;;;;;;;1.90;1.80;;;;;;;;;;4974433;28;20658;-87
2021/07/14 11:24:57;;;;;;;2.42;2.22;;;;;;;;;;4974713;28;20211;-87
2021/07/14 11:27:48;;;;;;;2.00;1.90;;;;;;;;;;4974982;28;20228;-86
2021/07/14 11:30:41;;;;;;;1.40;1.40;;;;;;;;;;4975198;28;20232;-86
2021/07/14 11:33:11;;;;;;;1.58;1.48;;;;;;;;;;4973567;28;20283;-85
2021/07/14 11:35:47;;;;;;;1.58;1.48;;;;;;;;;;4971475;28;20275;-86
2021/07/14 11:38:30;;;;;;;1.52;1.10;;;;;;;;;;4974816;28;20224;-86
2021/07/14 11:41:01;;;;;;;1.45;1.35;;;;;;;;;;4975029;28;20240;-86
2021/07/14 11:43:40;;;;;;;1.23;1.23;;;;;;;;;;4974621;28;20195;-89
2021/07/14 11:46:12;;;;;;;1.40;1.30;;;;;;;;;;4955657;29;20670;-88
2021/07/14 11:48:44;;;;;;;1.50;1.40;;;;;;;;;;4972392;28;20211;-89
2021/07/14 11:51:25;;;;;;;1.70;1.60;;;;;;;;;;4974777;28;20193;-88
2021/07/14 11:53:54;;;;;;;0.98;0.98;;;;;;;;;;4966716;28;20649;-87
2021/07/14 11:56:45;;;;;;;1.45;1.23;;;;;;;;;;4974560;28;20189;-89
2021/07/14 11:59:26;;;;;;;1.05;0.95;;;;;;;;;;4975257;28;20655;-89
2021/07/14 12:02:02;;;;;;;1.90;1.10;;;;;;;;;;4975261;28;20228;-91
2021/07/14 12:04:37;;;;;;;1.38;1.15;;;;;;;;;;4973020;28;20298;-90
2021/07/14 12:07:13;;;;;;;1.30;1.20;;;;;;;;;;4955358;28;20189;-91
2021/07/14 12:09:50;;;;;;;1.23;1.23;;;;;;;;;;4952508;28;20827;-90
2021/07/14 12:12:25;;;;;;;2.15;1.95;;;;;;;;;;4955278;29;20209;-88
2021/07/14 12:14:55;;;;;;;2.67;2.25;;;;;;;;;;4946886;29;20648;-88
2021/07/14 12:17:26;;;;;;;2.70;2.50;;;;;;;;;;4953907;29;20296;-88
2021/07/14 12:19:57;;;;;;;2.45;2.30;;;;;;;;;;4954471;28;20229;-88
2021/07/14 12:22:34;;;;;;;2.05;1.95;;;;;;;;;;4954060;28;20205;-88
2021/07/14 12:25:10;;;;;;;1.60;1.50;;;;;;;;;;4955337;29;20601;-89
2021/07/14 12:27:40;;;;;;;1.65;1.55;;;;;;;;;;4954697;29;20580;-90
2021/07/14 12:30:12;;;;;;;1.65;1.55;;;;;;;;;;4936010;29;20246;-90
2021/07/14 12:32:50;;;;;;;1.75;1.65;;;;;;;;;;4943478;29;20252;-91
2021/07/14 12:35:27;;;;;;;1.90;1.80;;;;;;;;;;4955043;29;20232;-91
2021/07/14 12:38:06;;;;;;;1.52;1.42;;;;;;;;;;4955000;29;20265;-92
2021/07/14 12:40:53;;;;;;;1.50;1.40;;;;;;;;;;4954921;28;20671;-88
2021/07/14 12:43:26;;;;;;;1.58;1.48;;;;;;;;;;4955003;29;20239;-89
2021/07/14 12:45:59;;;;;;;1.35;1.30;;;;;;;;;;4951515;29;20225;-90
2021/07/14 12:48:38;;;;;;;1.42;1.33;;;;;;;;;;4956062;29;20205;-89
2021/07/14 12:59:04;;;;;;;1.48;1.38;;;;;;;;;;4914864;29;20250;-92
2021/07/14 13:01:38;;;;;;;0.90;0.90;;;;;;;;;;4914878;29;20234;-91
2021/07/14 13:04:20;;;;;;;1.30;1.20;;;;;;;;;;4914499;29;20226;-91
2021/07/14 13:06:53;;;;;;;1.50;1.40;;;;;;;;;;4950468;29;20229;-91
2021/07/14 13:09:23;;;;;;;1.52;1.48;;;;;;;;;;4955173;28;20225;-92
2021/07/14 13:11:52;;;;;;;1.00;1.00;;;;;;;;;;4954805;29;20614;-91
2021/07/14 13:14:31;;;;;;;1.48;1.38;;;;;;;;;;4954226;28;20232;-92
2021/07/14 13:17:28;;;;;;;1.13;1.13;;;;;;;;;;4955192;29;20216;-92
2021/07/14 13:20:19;;;;;;;1.00;1.00;;;;;;;;;;4954305;28;20231;-91
2021/07/14 13:23:01;;;;;;;1.10;1.10;;;;;;;;;;4954821;29;20212;-92
2021/07/14 13:26:00;;;;;;;0.80;0.80;;;;;;;;;;4955252;29;20201;-93
2021/07/14 13:29:02;;;;;;;1.20;1.20;;;;;;;;;;4954913;29;20212;-91
2021/07/14 13:31:42;;;;;;;1.10;1.10;;;;;;;;;;4955668;29;20196;-91
2021/07/14 13:34:18;;;;;;;1.15;1.15;;;;;;;;;;4956479;29;20251;-92
2021/07/14 13:36:50;;;;;;;1.60;1.50;;;;;;;;;;4956305;28;20248;-93
2021/07/14 13:39:19;;;;;;;1.10;1.10;;;;;;;;;;4954659;28;20607;-92
2021/07/14 13:41:48;;;;;;;0.80;0.80;;;;;;;;;;4956477;28;20259;-90
2021/07/14 13:44:31;;;;;;;0.60;0.60;;;;;;;;;;4958819;29;20205;-90
2021/07/14 13:47:20;;;;;;;1.05;0.90;;;;;;;;;;4955199;29;20268;-90
2021/07/14 13:49:54;;;;;;;0.88;0.88;;;;;;;;;;4954236;28;20742;-90
2021/07/14 13:52:24;;;;;;;0.80;0.80;;;;;;;;;;4954114;29;20189;-90
2021/07/14 13:55:30;;;;;;;0.88;0.88;;;;;;;;;;4954498;29;20280;-91
2021/07/14 13:58:26;;;;;;;0.80;0.80;;;;;;;;;;4954038;29;20228;-91
2021/07/14 14:01:52;;;;;;;0.90;0.90;;;;;;;;;;4953841;29;20240;-90
2021/07/14 14:04:22;;;;;;;0.80;0.80;;;;;;;;;;4953684;29;20213;-90
2021/07/14 14:06:53;;;;;;;0.80;0.80;;;;;;;;;;4953839;29;20233;-92
2021/07/14 14:09:32;;;;;;;0.80;0.80;;;;;;;;;;4954138;28;20233;-90
2021/07/14 14:12:04;;;;;;;0.98;0.98;;;;;;;;;;4935039;29;20302;-90
2021/07/14 14:15:05;;;;;;;1.08;1.08;;;;;;;;;;4934875;29;20206;-93
2021/07/14 14:18:28;;;;;;;2.00;1.77;;;;;;;;;;4935379;29;20204;-92
2021/07/14 14:21:07;;;;;;;1.80;1.70;;;;;;;;;;4952272;28;20225;-91
2021/07/14 14:24:04;;;;;;;2.42;2.22;;;;;;;;;;4954436;29;20600;-91
2021/07/14 14:26:34;;;;;;;2.05;1.95;;;;;;;;;;4953769;29;20777;-89
2021/07/14 14:29:04;;;;;;;1.70;1.60;;;;;;;;;;4953440;28;20190;-91
2021/07/14 14:31:34;;;;;;;1.60;1.50;;;;;;;;;;4954728;28;20277;-90
2021/07/14 14:34:09;;;;;;;2.00;1.83;;;;;;;;;;4957255;29;20225;-91
2021/07/14 14:36:39;;;;;;;2.15;2.05;;;;;;;;;;4956687;29;20295;-91
2021/07/14 14:39:09;;;;;;;2.50;2.38;;;;;;;;;;4956976;29;20690;-90
2021/07/14 14:41:39;;;;;;;2.22;2.13;;;;;;;;;;4956489;29;20217;-90
2021/07/14 14:44:08;;;;;;;2.13;2.03;;;;;;;;;;4957181;29;20212;-89
2021/07/14 14:46:36;;;;;;;2.00;1.90;;;;;;;;;;4956727;29;20554;-90
2021/07/14 14:49:09;;;;;;;1.70;1.60;;;;;;;;;;4956823;28;20201;-90
2021/07/14 14:51:58;;;;;;;2.95;2.10;;;;;;;;;;4957124;29;20598;-90
2021/07/14 14:54:39;;;;;;;2.08;1.92;;;;;;;;;;4957157;28;20617;-89
2021/07/14 14:57:10;;;;;;;2.42;2.25;;;;;;;;;;4956587;29;20194;-89
2021/07/14 14:59:40;;;;;;;2.33;2.22;;;;;;;;;;4956640;28;20285;-89
2021/07/14 15:02:10;;;;;;;1.73;1.63;;;;;;;;;;4957170;29;20209;-89
2021/07/14 15:04:40;;;;;;;2.50;2.30;;;;;;;;;;4956598;28;20206;-90
2021/07/14 15:07:10;;;;;;;2.17;1.98;;;;;;;;;;4937493;29;20205;-89
2021/07/14 15:09:46;;;;;;;1.90;1.80;;;;;;;;;;4937753;29;20261;-90
2021/07/14 15:12:14;;;;;;;2.20;2.10;;;;;;;;;;4937843;29;20215;-89
2021/07/14 15:14:42;;;;;;;1.92;1.83;;;;;;;;;;4937295;29;20224;-91
2021/07/14 15:17:11;;;;;;;1.92;1.83;;;;;;;;;;4937588;29;20210;-89
2021/07/14 15:19:40;;;;;;;1.77;1.67;;;;;;;;;;4937308;29;20221;-89
2021/07/14 15:22:18;;;;;;;1.83;1.73;;;;;;;;;;4936817;29;20218;-90
2021/07/14 15:24:58;;;;;;;1.95;1.85;;;;;;;;;;4937167;29;20213;-89
2021/07/14 15:30:15;;;;;;;1.80;1.70;;;;;;;;;;4920063;29;20213;-89
2021/07/14 15:32:49;;;;;;;1.25;1.23;;;;;;;;;;4936706;29;20641;-89
2021/07/14 15:35:33;;;;;;;1.52;1.42;;;;;;;;;;4951344;29;20193;-90
2021/07/14 15:38:02;;;;;;;1.70;1.60;;;;;;;;;;4956439;28;20664;-89
2021/07/14 15:40:41;;;;;;;1.80;1.70;;;;;;;;;;4955938;28;20229;-89
2021/07/14 15:43:10;;;;;;;2.13;1.95;;;;;;;;;;4944393;29;20189;-89
2021/07/14 15:45:39;;;;;;;2.50;2.30;;;;;;;;;;4938874;29;20633;-89
2021/07/14 15:48:08;;;;;;;1.75;1.65;;;;;;;;;;4937120;29;20201;-89
2021/07/14 15:50:37;;;;;;;1.83;1.73;;;;;;;;;;4934661;29;20278;-89
2021/07/14 15:53:13;;;;;;;2.00;1.90;;;;;;;;;;4936599;29;20272;-89
2021/07/14 15:56:00;;;;;;;1.55;1.45;;;;;;;;;;4954103;29;21040;-89
2021/07/14 15:58:33;;;;;;;2.28;2.05;;;;;;;;;;4955895;29;20879;-89
2021/07/14 16:01:08;;;;;;;3.38;2.13;;;;;;;;;;4937516;29;20709;-90
2021/07/14 16:03:36;;;;;;;1.80;1.70;;;;;;;;;;4936605;29;20660;-90
2021/07/14 16:06:34;;;;;;;2.08;1.98;;;;;;;;;;4947792;29;20571;-90
2021/07/14 16:09:04;;;;;;;2.05;1.95;;;;;;;;;;4955587;28;20574;-89
2021/07/14 16:12:06;;;;;;;1.60;1.50;;;;;;;;;;4955773;29;20272;-89
2021/07/14 16:14:52;;;;;;;1.63;1.52;;;;;;;;;;4955800;29;20197;-90
2021/07/14 16:17:33;;;;;;;2.30;2.20;;;;;;;;;;4955446;29;20562;-88
2021/07/14 16:20:01;;;;;;;2.35;2.15;;;;;;;;;;4955598;28;20235;-88
2021/07/14 16:22:30;;;;;;;2.45;2.15;;;;;;;;;;4955433;29;20747;-89
2021/07/14 16:25:10;;;;;;;2.47;2.13;;;;;;;;;;4955098;29;20229;-87
2021/07/14 16:27:40;;;;;;;2.67;1.75;;;;;;;;;;4948712;29;20212;-89
2021/07/14 16:30:10;;;;;;;2.53;1.80;;;;;;;;;;4954958;28;20229;-88
2021/07/14 16:32:40;;;;;;;2.28;2.17;;;;;;;;;;4955263;29;20690;-88
2021/07/14 16:35:09;;;;;;;2.13;2.03;;;;;;;;;;4954760;29;20213;-89
2021/07/14 16:37:38;;;;;;;2.05;1.95;;;;;;;;;;4955110;29;20197;-88
2021/07/14 16:40:13;;;;;;;2.15;2.05;;;;;;;;;;4954858;28;20225;-88
2021/07/14 16:43:06;;;;;;;2.60;2.40;;;;;;;;;;4954944;29;20220;-88
2021/07/14 16:45:36;;;;;;;2.03;1.92;;;;;;;;;;4954907;29;20194;-88